E85 weather

Denio Junction Airport
Denio, Nevada, United States

Public forecast

Using degrees Fahrenheit for public forecast. Weather courtesy of forecast.io.

Closest aviation weather report (METAR) to Denio Junction Airport

Closest report is Rome State Airport, 50.0 nm (92.6 km) NE. Retrieved 2020/01/19 17:52 UTC (15 minutes ago):

KREO 191752Z AUTO VRB03KT M02/M06 A3043 RMK AO1 SLP336 T10171061 11017 21089 53004

Closest aviation forecast (TAF) to Denio Junction Airport

Closest forecast is Winnemucca Municipal Airport, 73.6 nm (136.2 km) SSE. Retrieved 2020/01/19 18:42 UTC (0 seconds ago):

TAF KWMC 191740Z 1918/2018 07007KT P6SM BKN150 BKN220 FM201000 09005KT P6SM OVC120 FM201300 VRB04KT P6SM OVC120